Time;durP1;ratioP1;P1;durP2;ratioP2;P2;SDS_P1;SDS_P2;PMS_P1;PMS_P2;Temp;Humidity;BMP_temperature;BMP_pressure;BME280_temperature;BME280_humidity;BME280_pressure;Samples;Min_cycle;Max_cycle;Signal;HPM_P1;HPM_P2
2022/12/04 00:00:13;;;;;;;41.03;19.40;;;-0.30;99.90;;;;;;5056418;28;20131;-31
2022/12/04 00:02:39;;;;;;;38.53;19.97;;;-0.30;99.90;;;;;;5056350;28;20037;-31
2022/12/04 00:05:08;;;;;;;40.07;18.87;;;-0.40;99.90;;;;;;5088154;28;20045;-31
2022/12/04 00:07:34;;;;;;;35.30;18.33;;;-0.40;99.90;;;;;;5056277;28;20117;-31
2022/12/04 00:10:00;;;;;;;38.80;19.47;;;-0.40;99.90;;;;;;5056777;28;20372;-32
2022/12/04 00:12:26;;;;;;;37.70;18.77;;;-0.40;99.90;;;;;;5056112;28;20033;-31
2022/12/04 00:14:52;;;;;;;40.37;20.60;;;-0.40;99.90;;;;;;5056135;28;20055;-31
2022/12/04 00:17:17;;;;;;;34.93;17.10;;;-0.40;99.90;;;;;;5054702;28;20467;-32
2022/12/04 00:19:43;;;;;;;34.53;17.47;;;-0.40;99.90;;;;;;5055950;28;20128;-31
2022/12/04 00:22:09;;;;;;;37.60;18.97;;;-0.40;99.90;;;;;;5056250;28;20048;-31
2022/12/04 00:24:34;;;;;;;37.23;19.03;;;-0.40;99.90;;;;;;5056538;28;20372;-31
2022/12/04 00:27:00;;;;;;;38.83;18.57;;;-0.40;99.90;;;;;;5021661;28;20077;-33
2022/12/04 00:29:26;;;;;;;39.17;18.03;;;-0.40;99.90;;;;;;5055811;28;20076;-31
2022/12/04 00:31:51;;;;;;;35.63;17.57;;;-0.40;99.90;;;;;;5054552;28;20127;-32
2022/12/04 00:34:17;;;;;;;35.40;18.30;;;-0.30;99.90;;;;;;5038004;28;20045;-31
2022/12/04 00:36:43;;;;;;;39.60;18.73;;;-0.30;99.90;;;;;;5037923;28;20052;-31
2022/12/04 00:39:09;;;;;;;37.57;18.40;;;-0.30;99.90;;;;;;5055661;28;20052;-31
2022/12/04 00:41:34;;;;;;;41.43;18.93;;;-0.30;99.90;;;;;;5055630;28;20045;-32
2022/12/04 00:44:01;;;;;;;41.03;19.13;;;0.00;99.90;;;;;;5054080;28;20049;-32
2022/12/04 00:46:27;;;;;;;36.80;18.73;;;-0.30;99.90;;;;;;5055813;28;20052;-31
2022/12/04 00:48:53;;;;;;;37.40;18.70;;;-0.30;99.90;;;;;;5055171;28;20044;-31
2022/12/04 00:51:24;;;;;;;39.50;19.13;;;-0.30;99.90;;;;;;5055954;28;20045;-32
2022/12/04 00:53:51;;;;;;;35.47;17.37;;;-0.20;99.90;;;;;;5055234;28;20049;-31
2022/12/04 00:56:21;;;;;;;34.23;18.20;;;-0.20;99.90;;;;;;5054142;28;20369;-31
2022/12/04 00:58:50;;;;;;;38.87;19.43;;;-0.20;99.90;;;;;;5055938;28;20049;-31
2022/12/04 01:01:18;;;;;;;41.90;19.30;;;-0.10;99.90;;;;;;5037653;28;20479;-32
2022/12/04 01:03:45;;;;;;;39.73;19.80;;;-0.10;99.90;;;;;;5053977;28;20392;-32
2022/12/04 01:06:37;;;;;;;36.60;18.33;;;-0.10;99.90;;;;;;5053973;28;20052;-32
2022/12/04 01:09:04;;;;;;;41.50;19.57;;;-0.10;99.90;;;;;;5052622;28;20061;-31
2022/12/04 01:11:30;;;;;;;43.33;20.07;;;-0.20;99.90;;;;;;5054577;28;20117;-32
2022/12/04 01:13:58;;;;;;;38.53;19.30;;;0.40;99.90;;;;;;5054949;28;20083;-31
2022/12/04 01:16:35;;;;;;;42.13;20.07;;;-0.40;99.90;;;;;;5054803;28;20175;-31
2022/12/04 01:19:01;;;;;;;44.47;20.97;;;-0.40;99.90;;;;;;5053715;28;20491;-32
2022/12/04 01:21:27;;;;;;;41.00;20.00;;;-0.50;99.90;;;;;;5054915;28;20144;-31
2022/12/04 01:23:53;;;;;;;38.93;19.63;;;-0.60;99.90;;;;;;5053874;28;20040;-32
2022/12/04 01:26:19;;;;;;;46.77;19.87;;;-0.60;99.90;;;;;;5053793;28;20127;-31
2022/12/04 01:28:45;;;;;;;43.73;21.40;;;-0.70;99.90;;;;;;5053803;28;20175;-32
2022/12/04 01:31:13;;;;;;;45.77;20.83;;;-0.70;99.90;;;;;;5052589;28;20037;-31
2022/12/04 01:33:40;;;;;;;47.50;21.50;;;-0.70;99.90;;;;;;5054657;28;20048;-31
2022/12/04 01:36:08;;;;;;;42.47;19.73;;;-0.80;99.90;;;;;;5054888;28;20045;-31
2022/12/04 01:38:35;;;;;;;47.03;21.03;;;-0.80;99.90;;;;;;5054560;28;20056;-32
2022/12/04 01:41:01;;;;;;;47.27;21.07;;;-0.70;99.90;;;;;;5055242;28;20048;-32
2022/12/04 01:43:29;;;;;;;45.23;20.20;;;-0.70;99.90;;;;;;5054435;28;20544;-32
2022/12/04 01:45:59;;;;;;;48.57;20.60;;;-0.60;99.90;;;;;;5054692;28;20437;-31
2022/12/04 01:48:31;;;;;;;46.50;21.00;;;-0.70;99.90;;;;;;5055166;28;20049;-31
2022/12/04 01:51:16;;;;;;;50.43;22.40;;;-0.60;99.90;;;;;;5053148;28;20387;-31
2022/12/04 01:53:49;;;;;;;44.30;20.70;;;-0.60;99.90;;;;;;5054300;28;20057;-32
2022/12/04 01:56:16;;;;;;;50.15;21.92;;;-0.50;99.90;;;;;;5053941;28;20041;-31
2022/12/04 01:58:47;;;;;;;46.27;23.07;;;-0.50;99.90;;;;;;5054215;28;20052;-32
2022/12/04 02:01:13;;;;;;;50.37;22.33;;;-0.50;99.90;;;;;;5055024;28;20049;-32
2022/12/04 02:03:39;;;;;;;45.90;21.53;;;-0.50;99.90;;;;;;5054153;28;20502;-32
2022/12/04 02:06:05;;;;;;;45.63;22.80;;;-0.40;99.90;;;;;;5036372;28;20479;-32
2022/12/04 02:08:33;;;;;;;44.37;21.40;;;-0.40;99.90;;;;;;5054022;28;20049;-31
2022/12/04 02:11:08;;;;;;;43.73;21.50;;;-0.40;99.90;;;;;;5054750;28;20080;-32
2022/12/04 02:14:03;;;;;;;48.50;22.17;;;-0.40;99.90;;;;;;5053937;28;20056;-33
2022/12/04 02:16:34;;;;;;;47.93;22.40;;;-0.40;99.90;;;;;;5054499;28;20052;-32
2022/12/04 02:19:26;;;;;;;47.00;22.00;;;-0.40;99.90;;;;;;5052567;28;20081;-32
2022/12/04 02:21:54;;;;;;;44.07;21.23;;;-0.40;99.90;;;;;;5052831;28;20048;-32
2022/12/04 02:24:47;;;;;;;45.70;21.03;;;0.20;99.90;;;;;;5053780;28;20049;-32
2022/12/04 02:27:22;;;;;;;46.63;21.90;;;-0.40;99.90;;;;;;5054383;28;20103;-32
2022/12/04 02:30:09;;;;;;;47.37;21.43;;;-0.30;99.90;;;;;;5053350;28;20052;-32
2022/12/04 02:32:47;;;;;;;47.53;21.50;;;-0.30;99.90;;;;;;5053964;28;20041;-32
2022/12/04 02:35:35;;;;;;;46.43;21.63;;;-0.30;99.90;;;;;;5054538;28;20040;-31
2022/12/04 02:38:14;;;;;;;52.50;22.07;;;-0.30;99.90;;;;;;5053699;28;20052;-31
2022/12/04 02:41:20;;;;;;;46.13;21.70;;;-0.30;99.90;;;;;;5053321;28;20146;-32
2022/12/04 02:43:53;;;;;;;44.87;21.57;;;-0.30;99.90;;;;;;5053815;28;20053;-31
2022/12/04 02:46:38;;;;;;;48.05;21.05;;;-0.30;99.90;;;;;;5053541;28;20080;-31
2022/12/04 02:49:09;;;;;;;45.67;22.10;;;-0.30;99.90;;;;;;5053142;28;20068;-31
2022/12/04 02:51:38;;;;;;;47.97;21.63;;;-0.20;99.90;;;;;;5051955;28;20075;-32
2022/12/04 02:54:09;;;;;;;45.30;21.93;;;-0.20;99.90;;;;;;5052478;28;20049;-32
2022/12/04 02:56:39;;;;;;;44.93;21.90;;;-0.20;99.90;;;;;;5053767;28;20094;-31
2022/12/04 02:59:37;;;;;;;44.90;22.00;;;0.30;99.90;;;;;;5054020;28;20081;-31
2022/12/04 03:02:11;;;;;;;46.27;21.17;;;-0.20;99.90;;;;;;5052477;28;20102;-32
2022/12/04 03:04:39;;;;;;;46.00;23.17;;;-0.10;99.90;;;;;;5053127;28;20495;-32
2022/12/04 03:07:16;;;;;;;48.17;23.20;;;-0.20;99.90;;;;;;5053355;28;20124;-32
2022/12/04 03:09:50;;;;;;;46.20;23.40;;;-0.20;99.90;;;;;;5053846;28;20061;-31
2022/12/04 03:12:20;;;;;;;;;;;-0.20;99.90;;;;;;5053744;28;20051;-31
2022/12/04 03:14:56;;;;;;;46.33;22.03;;;-0.30;99.90;;;;;;5054179;28;19927;-31
2022/12/04 03:17:41;;;;;;;49.87;23.80;;;-0.20;99.90;;;;;;5052369;28;20049;-31
2022/12/04 03:20:13;;;;;;;43.30;22.67;;;-0.20;99.90;;;;;;5053255;28;20079;-31
2022/12/04 03:22:43;;;;;;;50.97;24.83;;;-0.20;99.90;;;;;;5052260;28;20053;-33
2022/12/04 03:25:09;;;;;;;50.47;24.90;;;-0.20;99.90;;;;;;5019205;28;20060;-32
2022/12/04 03:27:37;;;;;;;49.43;24.90;;;-0.30;99.90;;;;;;5052464;28;20060;-31
2022/12/04 03:30:13;;;;;;;51.23;25.50;;;-0.30;99.90;;;;;;5052686;28;20051;-33
2022/12/04 03:32:48;;;;;;;48.23;25.67;;;-0.30;99.90;;;;;;5053640;28;20402;-32
2022/12/04 03:35:36;;;;;;;49.57;24.37;;;-0.30;99.90;;;;;;5053393;28;20049;-31
2022/12/04 03:38:17;;;;;;;45.83;24.20;;;-0.30;99.90;;;;;;5052458;28;20081;-32
2022/12/04 03:40:55;;;;;;;49.43;26.13;;;-0.30;99.90;;;;;;5053670;28;20475;-32
2022/12/04 03:43:36;;;;;;;51.37;25.37;;;-0.30;99.90;;;;;;5052087;28;20430;-32
2022/12/04 03:46:21;;;;;;;52.20;27.47;;;-0.30;99.90;;;;;;5052310;28;20503;-31
2022/12/04 03:48:54;;;;;;;56.37;26.70;;;-0.30;99.90;;;;;;5052637;28;20490;-31
2022/12/04 03:51:32;;;;;;;54.33;27.47;;;-0.30;99.90;;;;;;5052883;28;20048;-31
2022/12/04 03:54:13;;;;;;;49.40;26.60;;;-0.30;99.90;;;;;;5054807;28;20052;-32
2022/12/04 03:56:45;;;;;;;51.90;27.93;;;-0.30;99.90;;;;;;5056569;28;20132;-32
2022/12/04 03:59:36;;;;;;;54.97;28.63;;;-0.30;99.90;;;;;;5057084;28;20435;-32
2022/12/04 04:02:03;;;;;;;56.30;27.33;;;-0.10;99.90;;;;;;5056075;28;20052;-31
2022/12/04 04:04:34;;;;;;;51.50;27.20;;;-0.30;99.90;;;;;;5056376;28;20116;-31
2022/12/04 04:07:33;;;;;;;53.20;26.13;;;-0.30;99.90;;;;;;5055331;28;20049;-32
2022/12/04 04:10:04;;;;;;;53.17;26.87;;;-0.30;99.90;;;;;;5064659;28;20140;-32
2022/12/04 04:12:36;;;;;;;51.67;26.27;;;-0.30;99.90;;;;;;5057028;28;20049;-31
2022/12/04 04:26:23;;;;;;;50.60;27.33;;;-0.40;99.90;;;;;;5056232;28;20118;-31
2022/12/04 04:28:48;;;;;;;55.53;28.83;;;-0.40;99.90;;;;;;5055867;28;20045;-32
2022/12/04 04:31:39;;;;;;;57.93;28.10;;;-0.40;99.90;;;;;;5056037;28;20056;-32
2022/12/04 04:34:31;;;;;;;55.43;28.77;;;-0.40;99.90;;;;;;5056642;28;20055;-31
2022/12/04 04:37:06;;;;;;;55.33;26.43;;;-0.40;99.90;;;;;;5056062;28;20045;-31
2022/12/04 04:39:40;;;;;;;58.67;27.90;;;-0.40;99.90;;;;;;5055697;28;20488;-32
2022/12/04 04:42:24;;;;;;;58.60;29.53;;;-0.40;99.90;;;;;;5055623;28;20099;-32
2022/12/04 04:45:01;;;;;;;58.78;28.92;;;-0.40;99.90;;;;;;5055667;28;20048;-31
2022/12/04 04:48:02;;;;;;;57.93;28.40;;;0.00;99.90;;;;;;5056045;28;20053;-31
2022/12/04 04:50:30;;;;;;;58.73;28.30;;;-0.50;99.90;;;;;;5037356;28;20057;-31
2022/12/04 04:53:01;;;;;;;56.90;29.27;;;-0.40;99.90;;;;;;5055421;28;20479;-31
2022/12/04 04:55:27;;;;;;;56.70;28.43;;;-0.50;99.90;;;;;;5054762;28;20045;-31
2022/12/04 04:57:53;;;;;;;53.93;28.50;;;-0.40;99.90;;;;;;5055398;28;20116;-32
2022/12/04 05:00:21;;;;;;;61.67;28.47;;;-0.50;99.90;;;;;;5054157;28;20057;-32
2022/12/04 05:02:48;;;;;;;58.73;29.33;;;-0.50;99.90;;;;;;5054515;28;20045;-31
2022/12/04 05:05:15;;;;;;;63.23;30.90;;;-0.50;99.90;;;;;;5055064;28;20049;-31
2022/12/04 05:07:40;;;;;;;58.93;28.87;;;-0.50;99.90;;;;;;5054230;28;20053;-31
2022/12/04 05:10:07;;;;;;;56.43;29.43;;;-0.50;99.90;;;;;;5055086;28;20053;-33
2022/12/04 05:12:33;;;;;;;62.10;30.73;;;-0.50;99.90;;;;;;5054975;28;20044;-31
2022/12/04 05:14:58;;;;;;;58.63;30.10;;;-0.40;99.90;;;;;;5055787;28;20498;-31
2022/12/04 05:17:24;;;;;;;61.33;30.60;;;-0.40;99.90;;;;;;5053764;28;20049;-31
2022/12/04 05:19:53;;;;;;;57.57;29.07;;;-0.40;99.90;;;;;;5070636;28;20080;-32
2022/12/04 05:22:21;;;;;;;59.73;29.63;;;-0.40;99.90;;;;;;5071045;28;20135;-31
2022/12/04 05:24:47;;;;;;;65.63;31.47;;;-0.40;99.90;;;;;;5055404;28;20059;-32
2022/12/04 05:27:13;;;;;;;63.03;29.60;;;-0.40;99.90;;;;;;5055116;28;20049;-31
2022/12/04 05:29:38;;;;;;;62.40;30.63;;;-0.40;99.90;;;;;;5054718;28;20068;-31
2022/12/04 05:32:04;;;;;;;61.93;29.73;;;-0.40;99.90;;;;;;5054882;28;20089;-31
2022/12/04 05:34:30;;;;;;;55.90;28.37;;;-0.40;99.90;;;;;;5054674;28;20053;-31
2022/12/04 05:36:56;;;;;;;56.43;28.20;;;-0.40;99.90;;;;;;5055134;28;20059;-31
2022/12/04 05:39:22;;;;;;;60.77;30.10;;;-0.40;99.90;;;;;;5036855;28;20045;-32
2022/12/04 05:41:47;;;;;;;62.97;29.40;;;-0.40;99.90;;;;;;5070277;28;20049;-31
2022/12/04 05:44:13;;;;;;;62.20;29.60;;;-0.40;99.90;;;;;;5054749;28;20073;-33
2022/12/04 05:46:39;;;;;;;61.37;29.73;;;-0.30;99.90;;;;;;5036284;28;20429;-31
2022/12/04 05:49:04;;;;;;;55.77;29.67;;;-0.30;99.90;;;;;;5036361;28;20056;-31
2022/12/04 05:51:30;;;;;;;58.67;29.10;;;-0.30;99.90;;;;;;5054551;28;20041;-32
2022/12/04 05:53:55;;;;;;;56.60;27.83;;;-0.30;99.90;;;;;;5054262;28;20049;-31
2022/12/04 05:56:21;;;;;;;60.97;31.00;;;-0.30;99.90;;;;;;5053089;28;20139;-32
2022/12/04 05:58:47;;;;;;;63.67;30.30;;;-0.30;99.90;;;;;;5053961;28;20446;-31
2022/12/04 06:01:19;;;;;;;56.53;28.07;;;-0.30;99.90;;;;;;5054166;28;20059;-32
2022/12/04 06:03:45;;;;;;;59.90;30.20;;;-0.30;99.90;;;;;;5054177;28;20064;-31
2022/12/04 06:06:21;;;;;;;57.60;29.90;;;-0.30;99.90;;;;;;5053086;28;20052;-31
2022/12/04 06:08:47;;;;;;;60.67;29.70;;;-0.30;99.90;;;;;;5053058;28;20395;-31
2022/12/04 06:11:16;;;;;;;63.33;30.53;;;-0.20;99.90;;;;;;5054279;28;20092;-31
2022/12/04 06:13:43;;;;;;;60.90;30.07;;;0.30;99.90;;;;;;5054766;28;20056;-31
2022/12/04 06:16:15;;;;;;;63.73;30.87;;;-0.20;99.90;;;;;;5053277;28;20048;-31
2022/12/04 06:18:41;;;;;;;62.63;30.47;;;-0.20;99.90;;;;;;5052521;28;20059;-32
2022/12/04 06:21:07;;;;;;;58.13;28.83;;;-0.20;99.90;;;;;;5053538;28;20428;-31
2022/12/04 06:23:33;;;;;;;58.17;29.52;;;-0.20;99.90;;;;;;5053834;28;20045;-31
2022/12/04 06:26:07;;;;;;;59.33;29.90;;;-0.20;99.90;;;;;;5053766;28;20091;-31
2022/12/04 06:28:33;;;;;;;;;;;-0.20;99.90;;;;;;5054740;28;20057;-32
2022/12/04 06:31:04;;;;;;;55.07;28.27;;;-0.20;99.90;;;;;;5036931;28;19986;-31
2022/12/04 06:33:31;;;;;;;57.23;28.23;;;-0.20;99.90;;;;;;5053307;28;20436;-31
2022/12/04 06:36:09;;;;;;;57.20;27.30;;;-0.20;99.90;;;;;;5052528;28;20061;-32
2022/12/04 06:38:35;;;;;;;55.60;29.60;;;-0.20;99.90;;;;;;5053687;28;20175;-31
2022/12/04 06:41:09;;;;;;;57.40;29.00;;;-0.20;99.90;;;;;;5054160;28;20080;-32
2022/12/04 06:43:36;;;;;;;61.90;30.37;;;-0.10;99.90;;;;;;5053845;28;20041;-31
2022/12/04 06:46:06;;;;;;;60.23;29.73;;;-0.20;99.90;;;;;;5053587;28;20110;-32
2022/12/04 06:48:32;;;;;;;61.80;29.07;;;-0.10;99.90;;;;;;5053402;28;20049;-31
2022/12/04 06:51:04;;;;;;;58.60;28.93;;;-0.10;99.90;;;;;;5053407;28;20045;-31
2022/12/04 06:53:31;;;;;;;61.20;29.73;;;-0.10;99.90;;;;;;5052866;28;20092;-31
2022/12/04 06:55:58;;;;;;;58.73;30.33;;;-0.10;99.90;;;;;;5035983;28;20049;-31
2022/12/04 06:58:25;;;;;;;60.83;29.57;;;-0.10;99.90;;;;;;5053453;28;20053;-31
2022/12/04 07:00:52;;;;;;;64.30;30.30;;;-0.10;99.90;;;;;;5053406;28;20053;-32
2022/12/04 07:03:17;;;;;;;59.03;27.87;;;-0.10;99.90;;;;;;5053379;28;20541;-31
2022/12/04 07:05:43;;;;;;;58.83;30.43;;;-0.10;99.90;;;;;;5053336;28;20048;-31
2022/12/04 07:08:09;;;;;;;62.50;29.27;;;-0.10;99.90;;;;;;5053029;28;20045;-31
2022/12/04 07:10:35;;;;;;;60.10;30.05;;;-0.10;99.90;;;;;;5053885;28;20080;-31
2022/12/04 07:13:02;;;;;;;63.93;30.30;;;-0.10;99.90;;;;;;5053767;28;20052;-31
2022/12/04 07:15:28;;;;;;;64.73;30.53;;;-0.10;99.90;;;;;;5053285;28;20049;-32
2022/12/04 07:17:54;;;;;;;67.53;31.07;;;-0.10;99.90;;;;;;5053257;28;20072;-33
2022/12/04 07:20:19;;;;;;;59.77;29.97;;;-0.10;99.90;;;;;;5053134;28;20199;-31
2022/12/04 07:22:45;;;;;;;65.27;33.60;;;-0.10;99.90;;;;;;5053212;28;20051;-32
2022/12/04 07:25:11;;;;;;;61.40;30.67;;;0.00;99.90;;;;;;5053228;28;20037;-31
2022/12/04 07:27:36;;;;;;;59.93;30.50;;;-0.10;99.90;;;;;;5054644;28;20151;-29
2022/12/04 07:30:04;;;;;;;62.10;30.57;;;0.00;99.90;;;;;;5057045;28;20399;-30
2022/12/04 07:32:30;;;;;;;66.27;30.37;;;0.00;99.90;;;;;;5057489;28;20041;-29
2022/12/04 07:34:56;;;;;;;62.03;30.67;;;0.00;99.90;;;;;;5057114;28;20048;-29
2022/12/04 07:37:22;;;;;;;57.37;30.40;;;0.00;99.90;;;;;;5056863;28;20084;-29
2022/12/04 07:39:51;;;;;;;59.10;29.70;;;0.00;99.90;;;;;;5056833;28;20087;-30
2022/12/04 07:42:18;;;;;;;66.20;30.90;;;0.00;99.90;;;;;;5055821;28;20056;-29
2022/12/04 07:44:44;;;;;;;60.30;29.73;;;0.30;99.90;;;;;;5056604;28;20053;-29
2022/12/04 07:47:09;;;;;;;59.00;29.67;;;0.00;99.90;;;;;;5057549;28;20049;-29
2022/12/04 07:49:35;;;;;;;59.08;29.13;;;0.10;99.90;;;;;;5056679;28;20056;-29
2022/12/04 07:52:00;;;;;;;58.40;28.20;;;0.10;99.90;;;;;;5056553;28;20041;-29
2022/12/04 07:54:26;;;;;;;63.07;30.07;;;0.10;99.90;;;;;;5056549;28;20106;-29
2022/12/04 07:56:52;;;;;;;61.33;28.67;;;0.10;99.90;;;;;;5056513;28;20049;-29
2022/12/04 07:59:17;;;;;;;63.73;29.40;;;0.10;99.90;;;;;;5056734;28;20041;-29
2022/12/04 08:01:43;;;;;;;62.67;28.77;;;0.20;99.90;;;;;;5056996;28;20044;-29
2022/12/04 08:04:10;;;;;;;59.40;28.93;;;0.20;99.90;;;;;;5023196;28;20198;-30
2022/12/04 08:06:36;;;;;;;58.07;28.33;;;0.20;99.90;;;;;;5056326;28;20048;-29
2022/12/04 08:09:03;;;;;;;57.43;29.73;;;0.20;99.90;;;;;;5055325;28;20179;-29
2022/12/04 08:11:29;;;;;;;65.27;31.10;;;0.30;99.90;;;;;;5056329;28;20053;-29
2022/12/04 08:14:00;;;;;;;65.18;29.58;;;0.20;99.90;;;;;;5055864;28;20047;-29
2022/12/04 08:16:28;;;;;;;59.75;30.45;;;0.30;99.90;;;;;;5056068;28;20048;-29
2022/12/04 08:18:55;;;;;;;60.20;29.35;;;0.30;99.90;;;;;;5056004;28;20102;-29
2022/12/04 08:21:22;;;;;;;52.05;25.80;;;0.30;99.90;;;;;;5055935;28;20060;-29
2022/12/04 08:23:50;;;;;;;64.13;30.33;;;0.30;99.90;;;;;;5056004;28;20128;-29
2022/12/04 08:26:17;;;;;;;65.28;32.55;;;0.30;99.90;;;;;;5055919;28;20040;-29
2022/12/04 08:28:43;;;;;;;59.47;30.42;;;0.30;99.90;;;;;;5056396;28;20052;-30
2022/12/04 08:31:15;;;;;;;57.57;29.07;;;1.00;99.90;;;;;;5054455;28;20048;-29
2022/12/04 08:33:43;;;;;;;59.00;29.90;;;0.40;99.90;;;;;;5055273;28;20045;-29
2022/12/04 08:36:12;;;;;;;57.58;29.88;;;0.40;99.90;;;;;;5055701;28;20049;-29
2022/12/04 08:38:38;;;;;;;60.47;30.33;;;0.40;99.90;;;;;;5055171;28;20053;-29
2022/12/04 08:41:05;;;;;;;58.03;29.87;;;0.40;99.90;;;;;;5054623;28;20052;-29
2022/12/04 08:43:32;;;;;;;58.45;29.27;;;0.50;99.90;;;;;;5055442;28;20053;-29
2022/12/04 08:46:00;;;;;;;55.97;29.87;;;0.50;99.90;;;;;;5054542;28;20477;-30
2022/12/04 08:48:26;;;;;;;57.47;29.10;;;0.50;99.90;;;;;;5055574;28;20045;-29
2022/12/04 08:50:52;;;;;;;51.37;27.60;;;0.60;99.90;;;;;;5055510;28;20060;-29
2022/12/04 08:53:18;;;;;;;53.67;28.73;;;0.70;99.90;;;;;;5055409;28;20052;-28
2022/12/04 08:55:43;;;;;;;53.53;28.48;;;0.60;99.90;;;;;;5054997;28;20045;-29
2022/12/04 08:58:09;;;;;;;50.33;25.58;;;0.60;99.90;;;;;;5055397;28;20049;-29
2022/12/04 09:00:35;;;;;;;52.22;27.67;;;0.60;99.90;;;;;;5056144;28;20045;-29
2022/12/04 09:03:01;;;;;;;44.08;22.90;;;0.60;99.90;;;;;;5055587;28;20037;-29
2022/12/04 09:05:27;;;;;;;50.22;26.13;;;0.60;99.90;;;;;;5055302;28;20045;-29
2022/12/04 09:07:53;;;;;;;50.97;27.77;;;0.70;99.90;;;;;;5054271;28;20049;-29
2022/12/04 09:10:19;;;;;;;48.88;26.38;;;0.70;99.90;;;;;;5055097;28;20064;-29
2022/12/04 09:12:45;;;;;;;49.15;27.20;;;0.80;99.90;;;;;;5055059;28;20491;-30
2022/12/04 09:15:11;;;;;;;51.40;26.85;;;0.80;99.90;;;;;;5055281;28;20077;-29
2022/12/04 09:17:36;;;;;;;49.58;25.90;;;0.80;99.90;;;;;;5055048;28;20498;-28
2022/12/04 09:20:03;;;;;;;50.38;25.23;;;1.40;99.90;;;;;;5055725;28;20053;-30
2022/12/04 09:22:29;;;;;;;49.40;27.05;;;0.90;99.90;;;;;;5054934;28;20048;-29
2022/12/04 09:24:55;;;;;;;47.65;26.20;;;1.00;99.90;;;;;;5055161;28;20110;-29
2022/12/04 09:27:22;;;;;;;49.65;25.60;;;0.90;99.90;;;;;;5070594;28;20553;-29
2022/12/04 09:29:47;;;;;;;52.28;26.05;;;1.30;99.90;;;;;;5054767;28;20044;-29
2022/12/04 09:32:13;;;;;;;46.22;25.85;;;1.00;99.90;;;;;;5055423;28;20514;-29
2022/12/04 09:34:38;;;;;;;46.53;26.15;;;1.60;99.90;;;;;;5054292;28;20049;-29
2022/12/04 09:37:04;;;;;;;48.58;26.10;;;1.00;99.90;;;;;;5053144;28;20053;-29
2022/12/04 09:39:30;;;;;;;50.75;26.88;;;1.10;99.90;;;;;;5054499;28;20055;-29
2022/12/04 09:42:12;;;;;;;45.17;24.92;;;1.10;99.90;;;;;;5054137;28;20052;-29
2022/12/04 09:45:12;;;;;;;45.63;24.65;;;1.20;99.90;;;;;;5054813;28;20051;-28
2022/12/04 09:47:42;;;;;;;45.30;24.50;;;1.20;99.90;;;;;;5054715;28;20049;-29
2022/12/04 09:50:17;;;;;;;45.40;24.40;;;1.30;99.90;;;;;;5054126;28;20090;-29
2022/12/04 09:52:55;;;;;;;44.83;24.70;;;1.30;99.90;;;;;;5053854;28;20047;-30
2022/12/04 09:55:32;;;;;;;45.20;25.77;;;1.30;99.90;;;;;;5054353;28;20087;-30
2022/12/04 09:58:01;;;;;;;41.05;23.23;;;1.40;99.90;;;;;;5054532;28;20395;-29
2022/12/04 10:00:28;;;;;;;45.58;25.27;;;1.40;99.90;;;;;;5054148;28;20041;-30
2022/12/04 10:03:02;;;;;;;41.40;22.60;;;1.40;99.90;;;;;;5054622;28;20044;-29
2022/12/04 10:05:56;;;;;;;43.45;24.00;;;1.50;99.90;;;;;;5054462;28;20041;-29
2022/12/04 10:08:34;;;;;;;39.97;23.38;;;1.60;99.90;;;;;;5052766;28;20064;-29
2022/12/04 10:11:15;;;;;;;40.42;22.77;;;2.10;99.90;;;;;;5036380;28;20060;-29
2022/12/04 10:13:47;;;;;;;35.53;20.75;;;2.20;99.90;;;;;;5054801;28;20101;-29
2022/12/04 10:16:24;;;;;;;31.45;19.00;;;1.80;99.90;;;;;;5052776;28;20049;-30
2022/12/04 10:19:02;;;;;;;30.25;17.95;;;1.90;99.90;;;;;;5053832;28;20553;-30
2022/12/04 10:21:32;;;;;;;34.33;18.65;;;2.00;99.90;;;;;;5054410;28;20060;-29
2022/12/04 10:24:03;;;;;;;30.25;17.48;;;2.00;99.90;;;;;;5054107;28;20052;-29
2022/12/04 10:26:34;;;;;;;34.20;20.02;;;2.10;99.90;;;;;;5053773;28;20045;-29
2022/12/04 10:29:07;;;;;;;37.60;20.92;;;2.10;99.90;;;;;;5054373;28;20052;-30
2022/12/04 10:31:35;;;;;;;35.95;21.38;;;2.60;99.90;;;;;;5053677;28;20044;-29
2022/12/04 10:34:17;;;;;;;38.20;21.45;;;2.20;99.90;;;;;;5053646;28;20187;-30
2022/12/04 10:36:52;;;;;;;34.35;20.48;;;2.10;99.90;;;;;;5052667;28;20080;-29
2022/12/04 10:39:23;;;;;;;33.22;18.90;;;2.20;99.90;;;;;;5054457;28;20368;-29
2022/12/04 10:42:21;;;;;;;32.95;19.75;;;2.20;99.90;;;;;;5053686;28;20075;-29
2022/12/04 10:44:46;;;;;;;34.95;19.77;;;2.20;99.90;;;;;;5052647;28;20045;-30
2022/12/04 10:47:13;;;;;;;35.15;19.20;;;2.50;99.90;;;;;;5054369;28;20052;-29
2022/12/04 10:49:39;;;;;;;36.60;19.25;;;2.20;99.90;;;;;;5053917;28;20045;-29
2022/12/04 10:52:05;;;;;;;31.88;17.02;;;2.90;99.90;;;;;;5052371;28;20115;-29
2022/12/04 10:54:39;;;;;;;35.78;20.05;;;2.30;99.90;;;;;;5052294;28;20052;-29
2022/12/04 10:57:12;;;;;;;34.20;19.73;;;2.30;99.90;;;;;;5053535;28;20048;-29
2022/12/04 10:59:47;;;;;;;30.63;17.02;;;2.40;99.90;;;;;;5053505;28;20049;-29
2022/12/04 11:02:20;;;;;;;29.23;16.73;;;2.40;99.90;;;;;;5054876;28;20045;-29
2022/12/04 11:04:57;;;;;;;28.10;16.75;;;2.30;99.90;;;;;;5039819;28;20049;-30
2022/12/04 11:07:28;;;;;;;25.02;14.32;;;2.40;99.90;;;;;;5056760;28;20076;-29
2022/12/04 11:10:04;;;;;;;19.85;11.48;;;2.40;99.90;;;;;;5057993;28;20059;-30
2022/12/04 11:12:31;;;;;;;18.27;11.32;;;2.40;99.90;;;;;;5057207;28;20522;-29
2022/12/04 11:15:23;;;;;;;20.70;11.13;;;2.50;21.00;;;;;;5057589;28;20081;-30
2022/12/04 11:17:49;;;;;;;18.85;11.00;;;2.50;99.90;;;;;;5056881;28;20064;-30
2022/12/04 11:20:19;;;;;;;20.98;11.88;;;2.50;99.90;;;;;;5057701;28;20053;-28
2022/12/04 11:22:55;;;;;;;20.08;11.75;;;2.50;99.90;;;;;;5056937;28;20131;-29
2022/12/04 11:25:24;;;;;;;19.98;12.23;;;3.00;1.00;;;;;;5056469;28;20103;-29
2022/12/04 11:27:57;;;;;;;20.30;12.20;;;3.10;99.90;;;;;;5057113;28;20053;-29
2022/12/04 11:30:34;;;;;;;20.33;12.57;;;2.50;99.90;;;;;;5057085;28;20057;-30
2022/12/04 11:33:01;;;;;;;22.67;12.40;;;2.50;99.90;;;;;;5089250;28;20540;-30
2022/12/04 11:35:29;;;;;;;22.27;13.77;;;2.50;1.00;;;;;;5056993;28;20042;-29
2022/12/04 11:37:59;;;;;;;20.92;13.07;;;2.50;99.90;;;;;;5057673;28;20128;-28
2022/12/04 11:40:26;;;;;;;20.55;12.50;;;2.50;99.90;;;;;;5055949;28;20499;-29
2022/12/04 11:43:18;;;;;;;18.65;11.65;;;2.60;1.00;;;;;;5055667;28;20045;-29
2022/12/04 11:45:59;;;;;;;20.10;11.68;;;2.60;99.90;;;;;;5056152;28;20095;-30
2022/12/04 11:48:27;;;;;;;20.35;12.30;;;3.40;99.90;;;;;;5056712;28;20123;-29
2022/12/04 11:51:13;;;;;;;19.55;11.55;;;2.50;99.90;;;;;;5055710;28;20106;-30
2022/12/04 11:53:46;;;;;;;21.33;13.15;;;2.50;99.90;;;;;;5056562;28;20079;-29
2022/12/04 11:56:18;;;;;;;;;;;2.60;1.00;;;;;;5056956;28;20090;-29
2022/12/04 11:58:48;;;;;;;22.48;12.82;;;2.40;99.90;;;;;;5056046;28;20275;-29
2022/12/04 12:01:39;;;;;;;23.60;13.00;;;2.30;99.90;;;;;;5056478;28;20091;-29
2022/12/04 12:04:16;;;;;;;21.13;13.27;;;2.40;99.90;;;;;;5056362;28;20475;-29
2022/12/04 12:07:11;;;;;;;19.05;11.68;;;2.30;99.90;;;;;;5056484;28;20053;-29
2022/12/04 12:09:55;;;;;;;21.70;12.80;;;2.30;1.00;;;;;;5056216;28;20116;-29
2022/12/04 12:12:45;;;;;;;20.33;12.60;;;2.30;99.90;;;;;;5056838;28;20056;-30
2022/12/04 12:15:18;;;;;;;29.45;15.40;;;2.30;1.00;;;;;;5055207;28;20487;-29
2022/12/04 12:17:53;;;;;;;24.40;15.07;;;2.70;1.00;;;;;;5056131;28;20075;-29
2022/12/04 12:20:30;;;;;;;24.48;15.10;;;2.40;99.90;;;;;;5038580;28;20060;-30
2022/12/04 12:23:15;;;;;;;25.05;14.48;;;2.40;99.90;;;;;;5056928;28;20049;-29
2022/12/04 12:26:02;;;;;;;23.90;14.02;;;2.40;99.90;;;;;;5056061;28;20049;-29
2022/12/04 12:29:02;;;;;;;25.00;14.50;;;2.40;57.70;;;;;;5056830;28;20053;-32
2022/12/04 12:31:46;;;;;;;22.50;13.60;;;2.40;99.90;;;;;;5056173;28;20077;-31
2022/12/04 12:34:28;;;;;;;26.13;15.23;;;2.40;99.90;;;;;;5038070;28;20049;-31
2022/12/04 12:36:55;;;;;;;25.60;14.57;;;2.40;1.00;;;;;;5038015;28;20053;-31
2022/12/04 12:39:28;;;;;;;25.88;15.02;;;2.40;99.90;;;;;;5055804;28;20056;-31
2022/12/04 12:42:00;;;;;;;28.35;16.63;;;2.40;1.00;;;;;;5056306;28;20037;-31
2022/12/04 12:44:49;;;;;;;26.08;15.60;;;2.40;1.00;;;;;;5055890;28;20041;-31
2022/12/04 12:47:28;;;;;;;26.63;15.38;;;2.40;1.00;;;;;;5056528;28;20057;-31
2022/12/04 12:50:03;;;;;;;26.92;15.80;;;2.40;1.00;;;;;;5055595;28;20487;-31
2022/12/04 12:52:44;;;;;;;27.65;16.13;;;2.40;1.00;;;;;;5055576;28;20136;-31
2022/12/04 12:55:35;;;;;;;27.30;16.17;;;2.40;1.00;;;;;;5056108;28;20103;-31
2022/12/04 12:58:35;;;;;;;27.55;15.85;;;2.40;53.20;;;;;;5055441;28;20052;-31
2022/12/04 13:01:17;;;;;;;27.88;15.35;;;2.40;1.00;;;;;;5055037;28;20049;-32
2022/12/04 13:03:57;;;;;;;24.15;14.90;;;2.40;98.30;;;;;;5088282;28;20135;-31
2022/12/04 13:06:31;;;;;;;35.33;16.02;;;2.40;92.90;;;;;;5055338;28;20083;-31